sensor_id;sensor_type;location;lat;lon;timestamp;P1;durP1;ratioP1;P2;durP2;ratioP2
67162;SDS011;54092;53.088;8.850;2023-02-14T00:01:36;42.50;;;16.98;;
67162;SDS011;54092;53.088;8.850;2023-02-14T00:04:03;45.50;;;16.85;;
67162;SDS011;54092;53.088;8.850;2023-02-14T00:06:32;43.22;;;15.65;;
67162;SDS011;54092;53.088;8.850;2023-02-14T00:09:00;43.30;;;15.88;;
67162;SDS011;54092;53.088;8.850;2023-02-14T00:11:26;49.63;;;18.02;;
67162;SDS011;54092;53.088;8.850;2023-02-14T00:13:52;43.72;;;17.45;;
67162;SDS011;54092;53.088;8.850;2023-02-14T00:16:36;48.25;;;17.83;;
67162;SDS011;54092;53.088;8.850;2023-02-14T00:19:02;44.20;;;17.33;;
67162;SDS011;54092;53.088;8.850;2023-02-14T00:21:27;46.10;;;17.45;;
67162;SDS011;54092;53.088;8.850;2023-02-14T00:23:54;44.22;;;17.38;;
67162;SDS011;54092;53.088;8.850;2023-02-14T00:26:19;45.58;;;16.23;;
67162;SDS011;54092;53.088;8.850;2023-02-14T00:28:45;50.05;;;15.93;;
67162;SDS011;54092;53.088;8.850;2023-02-14T00:31:10;44.20;;;16.70;;
67162;SDS011;54092;53.088;8.850;2023-02-14T00:33:36;46.35;;;17.05;;
67162;SDS011;54092;53.088;8.850;2023-02-14T00:36:05;48.53;;;17.48;;
67162;SDS011;54092;53.088;8.850;2023-02-14T00:38:31;47.85;;;18.67;;
67162;SDS011;54092;53.088;8.850;2023-02-14T00:40:57;42.33;;;16.08;;
67162;SDS011;54092;53.088;8.850;2023-02-14T00:43:23;43.60;;;16.55;;
67162;SDS011;54092;53.088;8.850;2023-02-14T00:45:49;43.10;;;16.95;;
67162;SDS011;54092;53.088;8.850;2023-02-14T00:48:14;45.25;;;17.17;;
67162;SDS011;54092;53.088;8.850;2023-02-14T00:50:40;48.28;;;17.17;;
67162;SDS011;54092;53.088;8.850;2023-02-14T00:53:05;41.47;;;16.23;;
67162;SDS011;54092;53.088;8.850;2023-02-14T00:55:31;41.92;;;15.95;;
67162;SDS011;54092;53.088;8.850;2023-02-14T00:57:56;40.35;;;15.07;;
67162;SDS011;54092;53.088;8.850;2023-02-14T01:00:22;40.80;;;15.48;;
67162;SDS011;54092;53.088;8.850;2023-02-14T01:02:47;37.17;;;14.75;;
67162;SDS011;54092;53.088;8.850;2023-02-14T01:05:13;41.95;;;14.10;;
67162;SDS011;54092;53.088;8.850;2023-02-14T01:07:38;40.75;;;13.07;;
67162;SDS011;54092;53.088;8.850;2023-02-14T01:10:04;35.03;;;12.85;;
67162;SDS011;54092;53.088;8.850;2023-02-14T01:12:30;36.58;;;13.82;;
67162;SDS011;54092;53.088;8.850;2023-02-14T01:14:55;41.55;;;14.35;;
67162;SDS011;54092;53.088;8.850;2023-02-14T01:17:21;36.03;;;11.57;;
67162;SDS011;54092;53.088;8.850;2023-02-14T01:19:46;39.38;;;13.63;;
67162;SDS011;54092;53.088;8.850;2023-02-14T01:22:11;38.85;;;12.98;;
67162;SDS011;54092;53.088;8.850;2023-02-14T01:24:37;36.38;;;12.00;;
67162;SDS011;54092;53.088;8.850;2023-02-14T01:27:03;34.60;;;13.00;;
67162;SDS011;54092;53.088;8.850;2023-02-14T01:29:28;37.55;;;12.20;;
67162;SDS011;54092;53.088;8.850;2023-02-14T01:31:54;29.70;;;12.00;;
67162;SDS011;54092;53.088;8.850;2023-02-14T01:34:19;29.42;;;12.07;;
67162;SDS011;54092;53.088;8.850;2023-02-14T01:36:44;34.78;;;12.00;;
67162;SDS011;54092;53.088;8.850;2023-02-14T01:39:11;35.90;;;12.02;;
67162;SDS011;54092;53.088;8.850;2023-02-14T01:41:39;32.50;;;11.98;;
67162;SDS011;54092;53.088;8.850;2023-02-14T01:46:41;37.42;;;11.82;;
67162;SDS011;54092;53.088;8.850;2023-02-14T01:49:16;31.67;;;11.85;;
67162;SDS011;54092;53.088;8.850;2023-02-14T01:51:47;31.80;;;11.32;;
67162;SDS011;54092;53.088;8.850;2023-02-14T01:54:16;29.65;;;11.50;;
67162;SDS011;54092;53.088;8.850;2023-02-14T01:56:44;27.42;;;11.05;;
67162;SDS011;54092;53.088;8.850;2023-02-14T01:59:14;31.10;;;11.38;;
67162;SDS011;54092;53.088;8.850;2023-02-14T02:01:43;32.55;;;11.40;;
67162;SDS011;54092;53.088;8.850;2023-02-14T02:04:11;36.08;;;12.23;;
67162;SDS011;54092;53.088;8.850;2023-02-14T02:06:41;35.58;;;11.93;;
67162;SDS011;54092;53.088;8.850;2023-02-14T02:09:12;33.22;;;12.38;;
67162;SDS011;54092;53.088;8.850;2023-02-14T02:11:41;32.13;;;11.80;;
67162;SDS011;54092;53.088;8.850;2023-02-14T02:14:10;33.92;;;11.93;;
67162;SDS011;54092;53.088;8.850;2023-02-14T02:19:49;34.03;;;12.40;;
67162;SDS011;54092;53.088;8.850;2023-02-14T02:31:28;33.35;;;11.40;;
67162;SDS011;54092;53.088;8.850;2023-02-14T02:34:11;34.78;;;11.50;;
67162;SDS011;54092;53.088;8.850;2023-02-14T02:37:26;33.50;;;11.88;;
67162;SDS011;54092;53.088;8.850;2023-02-14T02:40:27;32.55;;;12.02;;
67162;SDS011;54092;53.088;8.850;2023-02-14T02:43:12;31.90;;;11.52;;
67162;SDS011;54092;53.088;8.850;2023-02-14T02:46:03;33.72;;;11.82;;
67162;SDS011;54092;53.088;8.850;2023-02-14T02:49:00;39.50;;;12.52;;
67162;SDS011;54092;53.088;8.850;2023-02-14T02:51:43;41.80;;;12.88;;
67162;SDS011;54092;53.088;8.850;2023-02-14T02:54:38;32.22;;;11.70;;
67162;SDS011;54092;53.088;8.850;2023-02-14T02:57:18;36.00;;;12.32;;
67162;SDS011;54092;53.088;8.850;2023-02-14T02:59:47;35.70;;;13.52;;
67162;SDS011;54092;53.088;8.850;2023-02-14T03:02:23;39.20;;;13.48;;
67162;SDS011;54092;53.088;8.850;2023-02-14T03:04:54;36.13;;;13.05;;
67162;SDS011;54092;53.088;8.850;2023-02-14T03:07:33;34.97;;;12.40;;
67162;SDS011;54092;53.088;8.850;2023-02-14T03:10:05;34.95;;;13.40;;
67162;SDS011;54092;53.088;8.850;2023-02-14T03:12:45;35.83;;;13.27;;
67162;SDS011;54092;53.088;8.850;2023-02-14T03:15:37;38.80;;;12.68;;
67162;SDS011;54092;53.088;8.850;2023-02-14T03:18:17;35.22;;;13.88;;
67162;SDS011;54092;53.088;8.850;2023-02-14T03:20:52;38.83;;;13.60;;
67162;SDS011;54092;53.088;8.850;2023-02-14T03:27:06;34.78;;;12.50;;
67162;SDS011;54092;53.088;8.850;2023-02-14T03:29:52;39.25;;;14.05;;
67162;SDS011;54092;53.088;8.850;2023-02-14T03:32:28;46.40;;;14.45;;
67162;SDS011;54092;53.088;8.850;2023-02-14T03:35:11;41.08;;;15.43;;
67162;SDS011;54092;53.088;8.850;2023-02-14T03:37:54;44.70;;;14.32;;
67162;SDS011;54092;53.088;8.850;2023-02-14T03:40:22;38.92;;;15.40;;
67162;SDS011;54092;53.088;8.850;2023-02-14T03:42:52;39.20;;;13.95;;
67162;SDS011;54092;53.088;8.850;2023-02-14T03:45:22;42.60;;;15.00;;
67162;SDS011;54092;53.088;8.850;2023-02-14T03:47:53;38.38;;;13.70;;
67162;SDS011;54092;53.088;8.850;2023-02-14T03:50:21;44.10;;;14.43;;
67162;SDS011;54092;53.088;8.850;2023-02-14T03:52:48;42.00;;;14.50;;
67162;SDS011;54092;53.088;8.850;2023-02-14T03:55:17;34.58;;;14.95;;
67162;SDS011;54092;53.088;8.850;2023-02-14T03:57:50;38.40;;;14.00;;
67162;SDS011;54092;53.088;8.850;2023-02-14T04:00:22;43.08;;;14.65;;
67162;SDS011;54092;53.088;8.850;2023-02-14T04:02:48;41.05;;;15.57;;
67162;SDS011;54092;53.088;8.850;2023-02-14T04:05:25;38.45;;;13.88;;
67162;SDS011;54092;53.088;8.850;2023-02-14T04:07:52;43.55;;;15.77;;
67162;SDS011;54092;53.088;8.850;2023-02-14T04:10:21;43.03;;;14.57;;
67162;SDS011;54092;53.088;8.850;2023-02-14T04:12:48;43.55;;;16.20;;
67162;SDS011;54092;53.088;8.850;2023-02-14T04:15:14;49.60;;;16.98;;
67162;SDS011;54092;53.088;8.850;2023-02-14T04:17:40;48.22;;;15.55;;
67162;SDS011;54092;53.088;8.850;2023-02-14T04:20:24;46.15;;;16.95;;
67162;SDS011;54092;53.088;8.850;2023-02-14T04:22:50;46.75;;;16.58;;
67162;SDS011;54092;53.088;8.850;2023-02-14T04:25:16;46.63;;;15.90;;
67162;SDS011;54092;53.088;8.850;2023-02-14T04:27:42;45.53;;;17.05;;
67162;SDS011;54092;53.088;8.850;2023-02-14T04:30:08;49.42;;;16.25;;
67162;SDS011;54092;53.088;8.850;2023-02-14T04:32:36;49.10;;;16.38;;
67162;SDS011;54092;53.088;8.850;2023-02-14T04:35:03;45.65;;;17.27;;
67162;SDS011;54092;53.088;8.850;2023-02-14T04:37:29;44.17;;;15.70;;
67162;SDS011;54092;53.088;8.850;2023-02-14T04:39:54;43.42;;;15.07;;
67162;SDS011;54092;53.088;8.850;2023-02-14T04:42:20;45.42;;;17.20;;
67162;SDS011;54092;53.088;8.850;2023-02-14T04:44:45;46.72;;;16.90;;
67162;SDS011;54092;53.088;8.850;2023-02-14T04:47:12;50.50;;;17.23;;
67162;SDS011;54092;53.088;8.850;2023-02-14T04:49:37;44.47;;;17.52;;
67162;SDS011;54092;53.088;8.850;2023-02-14T04:52:03;48.60;;;18.85;;
67162;SDS011;54092;53.088;8.850;2023-02-14T04:54:30;44.92;;;16.30;;
67162;SDS011;54092;53.088;8.850;2023-02-14T04:56:55;45.05;;;17.98;;
67162;SDS011;54092;53.088;8.850;2023-02-14T04:59:21;48.97;;;17.10;;
67162;SDS011;54092;53.088;8.850;2023-02-14T05:01:47;46.10;;;17.10;;
67162;SDS011;54092;53.088;8.850;2023-02-14T05:04:12;41.25;;;15.70;;
67162;SDS011;54092;53.088;8.850;2023-02-14T05:06:38;40.40;;;16.02;;
67162;SDS011;54092;53.088;8.850;2023-02-14T05:09:03;39.97;;;15.77;;
67162;SDS011;54092;53.088;8.850;2023-02-14T05:11:29;45.83;;;16.08;;
67162;SDS011;54092;53.088;8.850;2023-02-14T05:13:55;43.85;;;16.17;;
67162;SDS011;54092;53.088;8.850;2023-02-14T05:16:20;42.22;;;15.60;;
67162;SDS011;54092;53.088;8.850;2023-02-14T05:18:46;40.10;;;14.25;;
67162;SDS011;54092;53.088;8.850;2023-02-14T05:21:12;42.75;;;16.02;;
67162;SDS011;54092;53.088;8.850;2023-02-14T05:23:37;38.63;;;14.70;;
67162;SDS011;54092;53.088;8.850;2023-02-14T05:26:03;39.95;;;15.27;;
67162;SDS011;54092;53.088;8.850;2023-02-14T05:28:29;40.70;;;15.48;;
67162;SDS011;54092;53.088;8.850;2023-02-14T05:30:55;40.60;;;14.88;;
67162;SDS011;54092;53.088;8.850;2023-02-14T05:33:21;44.67;;;15.43;;
67162;SDS011;54092;53.088;8.850;2023-02-14T05:35:47;44.47;;;15.75;;
67162;SDS011;54092;53.088;8.850;2023-02-14T05:38:13;44.97;;;15.45;;
67162;SDS011;54092;53.088;8.850;2023-02-14T05:40:38;42.90;;;15.57;;
67162;SDS011;54092;53.088;8.850;2023-02-14T05:43:04;43.00;;;14.85;;
67162;SDS011;54092;53.088;8.850;2023-02-14T05:45:30;41.20;;;15.00;;
67162;SDS011;54092;53.088;8.850;2023-02-14T05:47:56;45.88;;;15.15;;
67162;SDS011;54092;53.088;8.850;2023-02-14T05:50:21;48.05;;;16.08;;
67162;SDS011;54092;53.088;8.850;2023-02-14T05:52:47;41.53;;;15.32;;
67162;SDS011;54092;53.088;8.850;2023-02-14T05:55:12;40.90;;;16.73;;
67162;SDS011;54092;53.088;8.850;2023-02-14T05:57:38;44.35;;;16.13;;
67162;SDS011;54092;53.088;8.850;2023-02-14T06:00:04;41.38;;;14.90;;
67162;SDS011;54092;53.088;8.850;2023-02-14T06:02:31;42.40;;;14.90;;
67162;SDS011;54092;53.088;8.850;2023-02-14T06:04:56;49.17;;;16.10;;
67162;SDS011;54092;53.088;8.850;2023-02-14T06:07:22;46.80;;;15.95;;
67162;SDS011;54092;53.088;8.850;2023-02-14T06:09:48;45.88;;;15.50;;
67162;SDS011;54092;53.088;8.850;2023-02-14T06:12:13;49.28;;;15.63;;
67162;SDS011;54092;53.088;8.850;2023-02-14T06:14:39;40.28;;;14.80;;
67162;SDS011;54092;53.088;8.850;2023-02-14T06:17:07;50.30;;;16.98;;
67162;SDS011;54092;53.088;8.850;2023-02-14T06:19:33;43.63;;;13.68;;
67162;SDS011;54092;53.088;8.850;2023-02-14T06:21:59;47.45;;;15.38;;
67162;SDS011;54092;53.088;8.850;2023-02-14T06:24:25;40.92;;;15.18;;
67162;SDS011;54092;53.088;8.850;2023-02-14T06:26:50;43.88;;;14.95;;
67162;SDS011;54092;53.088;8.850;2023-02-14T06:29:16;45.40;;;15.05;;
67162;SDS011;54092;53.088;8.850;2023-02-14T06:31:42;49.80;;;16.00;;
67162;SDS011;54092;53.088;8.850;2023-02-14T06:34:07;45.42;;;14.40;;
67162;SDS011;54092;53.088;8.850;2023-02-14T06:36:33;38.75;;;13.15;;
67162;SDS011;54092;53.088;8.850;2023-02-14T06:38:59;46.58;;;14.93;;
67162;SDS011;54092;53.088;8.850;2023-02-14T06:41:24;45.60;;;14.55;;
67162;SDS011;54092;53.088;8.850;2023-02-14T06:43:50;45.33;;;14.88;;
67162;SDS011;54092;53.088;8.850;2023-02-14T06:46:16;43.42;;;15.18;;
67162;SDS011;54092;53.088;8.850;2023-02-14T06:48:42;51.45;;;15.73;;
67162;SDS011;54092;53.088;8.850;2023-02-14T06:51:08;43.75;;;15.45;;
67162;SDS011;54092;53.088;8.850;2023-02-14T06:53:34;45.35;;;16.63;;
67162;SDS011;54092;53.088;8.850;2023-02-14T06:55:59;43.75;;;15.35;;
67162;SDS011;54092;53.088;8.850;2023-02-14T06:58:25;41.33;;;14.45;;
67162;SDS011;54092;53.088;8.850;2023-02-14T07:00:51;42.33;;;13.63;;
67162;SDS011;54092;53.088;8.850;2023-02-14T07:03:19;41.95;;;14.80;;
67162;SDS011;54092;53.088;8.850;2023-02-14T07:05:44;39.15;;;14.68;;
67162;SDS011;54092;53.088;8.850;2023-02-14T07:08:10;37.50;;;15.75;;
67162;SDS011;54092;53.088;8.850;2023-02-14T07:10:36;42.22;;;15.07;;
67162;SDS011;54092;53.088;8.850;2023-02-14T07:13:02;42.22;;;14.85;;
67162;SDS011;54092;53.088;8.850;2023-02-14T07:15:27;41.00;;;13.93;;
67162;SDS011;54092;53.088;8.850;2023-02-14T07:17:53;39.38;;;14.25;;
67162;SDS011;54092;53.088;8.850;2023-02-14T07:20:19;45.60;;;15.70;;
67162;SDS011;54092;53.088;8.850;2023-02-14T07:22:45;41.17;;;14.05;;
67162;SDS011;54092;53.088;8.850;2023-02-14T07:25:11;41.85;;;16.58;;
67162;SDS011;54092;53.088;8.850;2023-02-14T07:27:36;40.08;;;15.57;;
67162;SDS011;54092;53.088;8.850;2023-02-14T07:30:03;38.75;;;14.73;;
67162;SDS011;54092;53.088;8.850;2023-02-14T07:32:30;38.50;;;15.80;;
67162;SDS011;54092;53.088;8.850;2023-02-14T07:34:55;42.45;;;14.75;;
67162;SDS011;54092;53.088;8.850;2023-02-14T07:37:21;42.83;;;14.90;;
67162;SDS011;54092;53.088;8.850;2023-02-14T07:39:47;42.65;;;15.23;;
67162;SDS011;54092;53.088;8.850;2023-02-14T07:42:12;42.58;;;14.43;;
67162;SDS011;54092;53.088;8.850;2023-02-14T07:44:38;37.88;;;13.85;;
67162;SDS011;54092;53.088;8.850;2023-02-14T07:47:04;40.25;;;14.60;;
67162;SDS011;54092;53.088;8.850;2023-02-14T07:49:30;40.28;;;15.13;;
67162;SDS011;54092;53.088;8.850;2023-02-14T07:51:56;41.97;;;15.18;;
67162;SDS011;54092;53.088;8.850;2023-02-14T07:54:21;39.28;;;14.65;;
67162;SDS011;54092;53.088;8.850;2023-02-14T07:56:48;42.58;;;14.90;;
67162;SDS011;54092;53.088;8.850;2023-02-14T07:59:13;38.50;;;15.43;;
67162;SDS011;54092;53.088;8.850;2023-02-14T08:01:39;42.00;;;15.95;;
67162;SDS011;54092;53.088;8.850;2023-02-14T08:04:04;39.80;;;15.25;;
67162;SDS011;54092;53.088;8.850;2023-02-14T08:06:30;41.88;;;14.15;;
67162;SDS011;54092;53.088;8.850;2023-02-14T08:08:55;39.35;;;14.63;;
67162;SDS011;54092;53.088;8.850;2023-02-14T08:11:21;35.40;;;13.10;;
67162;SDS011;54092;53.088;8.850;2023-02-14T08:14:05;35.60;;;12.73;;
67162;SDS011;54092;53.088;8.850;2023-02-14T08:16:31;37.67;;;14.25;;
67162;SDS011;54092;53.088;8.850;2023-02-14T08:18:58;34.22;;;14.40;;
67162;SDS011;54092;53.088;8.850;2023-02-14T08:21:24;36.33;;;13.93;;
67162;SDS011;54092;53.088;8.850;2023-02-14T08:23:49;34.30;;;14.40;;
67162;SDS011;54092;53.088;8.850;2023-02-14T08:26:15;35.30;;;13.88;;
67162;SDS011;54092;53.088;8.850;2023-02-14T08:28:41;35.50;;;14.30;;
67162;SDS011;54092;53.088;8.850;2023-02-14T08:31:07;34.45;;;13.45;;
67162;SDS011;54092;53.088;8.850;2023-02-14T08:33:32;36.92;;;14.55;;
67162;SDS011;54092;53.088;8.850;2023-02-14T08:35:58;40.42;;;14.82;;
67162;SDS011;54092;53.088;8.850;2023-02-14T08:38:24;37.55;;;14.80;;
67162;SDS011;54092;53.088;8.850;2023-02-14T08:40:49;31.63;;;12.32;;
67162;SDS011;54092;53.088;8.850;2023-02-14T08:43:15;31.45;;;13.23;;
67162;SDS011;54092;53.088;8.850;2023-02-14T08:45:41;30.40;;;13.20;;
67162;SDS011;54092;53.088;8.850;2023-02-14T08:48:07;25.30;;;12.15;;
67162;SDS011;54092;53.088;8.850;2023-02-14T08:50:34;27.35;;;12.38;;
67162;SDS011;54092;53.088;8.850;2023-02-14T08:53:04;27.23;;;12.23;;
67162;SDS011;54092;53.088;8.850;2023-02-14T08:55:32;22.60;;;10.45;;
67162;SDS011;54092;53.088;8.850;2023-02-14T08:57:58;26.80;;;12.30;;
67162;SDS011;54092;53.088;8.850;2023-02-14T09:00:24;21.27;;;11.30;;
67162;SDS011;54092;53.088;8.850;2023-02-14T09:02:50;25.80;;;11.77;;
67162;SDS011;54092;53.088;8.850;2023-02-14T09:05:17;25.88;;;11.32;;
67162;SDS011;54092;53.088;8.850;2023-02-14T09:07:43;22.25;;;10.70;;
67162;SDS011;54092;53.088;8.850;2023-02-14T09:10:09;28.40;;;12.88;;
67162;SDS011;54092;53.088;8.850;2023-02-14T09:12:37;30.67;;;12.75;;
67162;SDS011;54092;53.088;8.850;2023-02-14T09:15:04;27.10;;;12.32;;
67162;SDS011;54092;53.088;8.850;2023-02-14T09:17:29;25.23;;;12.57;;
67162;SDS011;54092;53.088;8.850;2023-02-14T09:19:55;27.23;;;13.15;;
67162;SDS011;54092;53.088;8.850;2023-02-14T09:22:21;27.90;;;12.85;;
67162;SDS011;54092;53.088;8.850;2023-02-14T09:24:46;35.38;;;16.05;;
67162;SDS011;54092;53.088;8.850;2023-02-14T09:27:12;27.60;;;15.10;;
67162;SDS011;54092;53.088;8.850;2023-02-14T09:29:37;25.15;;;12.65;;
67162;SDS011;54092;53.088;8.850;2023-02-14T09:32:03;29.80;;;13.77;;
67162;SDS011;54092;53.088;8.850;2023-02-14T09:34:29;29.00;;;12.85;;
67162;SDS011;54092;53.088;8.850;2023-02-14T09:36:55;27.42;;;13.27;;
67162;SDS011;54092;53.088;8.850;2023-02-14T09:39:39;28.50;;;13.68;;
67162;SDS011;54092;53.088;8.850;2023-02-14T09:44:56;25.75;;;12.65;;
67162;SDS011;54092;53.088;8.850;2023-02-14T09:47:45;25.05;;;13.20;;
67162;SDS011;54092;53.088;8.850;2023-02-14T09:50:44;25.38;;;13.52;;
67162;SDS011;54092;53.088;8.850;2023-02-14T09:55:45;23.90;;;12.23;;
67162;SDS011;54092;53.088;8.850;2023-02-14T09:58:20;23.02;;;12.77;;
67162;SDS011;54092;53.088;8.850;2023-02-14T10:01:10;25.23;;;12.85;;
67162;SDS011;54092;53.088;8.850;2023-02-14T10:04:15;21.65;;;12.35;;
67162;SDS011;54092;53.088;8.850;2023-02-14T10:07:22;27.60;;;13.95;;
67162;SDS011;54092;53.088;8.850;2023-02-14T10:12:38;24.02;;;13.52;;
67162;SDS011;54092;53.088;8.850;2023-02-14T10:17:50;20.58;;;12.35;;
67162;SDS011;54092;53.088;8.850;2023-02-14T10:23:04;22.25;;;13.40;;
67162;SDS011;54092;53.088;8.850;2023-02-14T10:25:53;23.17;;;13.27;;
67162;SDS011;54092;53.088;8.850;2023-02-14T10:28:36;23.38;;;13.52;;
67162;SDS011;54092;53.088;8.850;2023-02-14T10:31:14;22.52;;;13.15;;
67162;SDS011;54092;53.088;8.850;2023-02-14T10:33:51;22.38;;;13.35;;
67162;SDS011;54092;53.088;8.850;2023-02-14T10:39:23;19.13;;;11.75;;
67162;SDS011;54092;53.088;8.850;2023-02-14T10:47:55;19.58;;;12.20;;
67162;SDS011;54092;53.088;8.850;2023-02-14T10:56:05;22.17;;;13.00;;
67162;SDS011;54092;53.088;8.850;2023-02-14T10:58:37;20.05;;;11.20;;
67162;SDS011;54092;53.088;8.850;2023-02-14T11:01:09;20.48;;;11.85;;
67162;SDS011;54092;53.088;8.850;2023-02-14T11:03:39;20.60;;;12.18;;
67162;SDS011;54092;53.088;8.850;2023-02-14T11:06:10;21.42;;;12.00;;
67162;SDS011;54092;53.088;8.850;2023-02-14T11:08:37;21.48;;;12.45;;
67162;SDS011;54092;53.088;8.850;2023-02-14T11:13:48;21.13;;;11.98;;
67162;SDS011;54092;53.088;8.850;2023-02-14T11:16:33;21.63;;;12.23;;
67162;SDS011;54092;53.088;8.850;2023-02-14T11:21:38;21.83;;;12.73;;
67162;SDS011;54092;53.088;8.850;2023-02-14T11:29:40;19.88;;;12.23;;
67162;SDS011;54092;53.088;8.850;2023-02-14T11:34:46;20.02;;;11.23;;
67162;SDS011;54092;53.088;8.850;2023-02-14T11:37:30;22.23;;;12.45;;
67162;SDS011;54092;53.088;8.850;2023-02-14T11:40:06;18.67;;;11.73;;
67162;SDS011;54092;53.088;8.850;2023-02-14T11:45:39;21.75;;;12.80;;
67162;SDS011;54092;53.088;8.850;2023-02-14T11:48:18;19.40;;;10.97;;
67162;SDS011;54092;53.088;8.850;2023-02-14T11:50:52;27.52;;;16.58;;
67162;SDS011;54092;53.088;8.850;2023-02-14T11:53:22;19.63;;;12.43;;
67162;SDS011;54092;53.088;8.850;2023-02-14T11:55:53;22.55;;;11.82;;
67162;SDS011;54092;53.088;8.850;2023-02-14T11:58:28;20.23;;;11.45;;
67162;SDS011;54092;53.088;8.850;2023-02-14T12:01:01;21.05;;;12.23;;
67162;SDS011;54092;53.088;8.850;2023-02-14T12:03:27;19.85;;;12.27;;
67162;SDS011;54092;53.088;8.850;2023-02-14T12:05:57;20.00;;;12.15;;
67162;SDS011;54092;53.088;8.850;2023-02-14T12:08:25;17.75;;;11.60;;
67162;SDS011;54092;53.088;8.850;2023-02-14T12:11:01;21.17;;;12.45;;
67162;SDS011;54092;53.088;8.850;2023-02-14T12:13:50;28.35;;;14.65;;
67162;SDS011;54092;53.088;8.850;2023-02-14T12:16:28;22.33;;;12.40;;
67162;SDS011;54092;53.088;8.850;2023-02-14T12:19:00;22.13;;;13.00;;
67162;SDS011;54092;53.088;8.850;2023-02-14T12:24:11;19.27;;;11.63;;
67162;SDS011;54092;53.088;8.850;2023-02-14T12:27:03;20.48;;;12.40;;
67162;SDS011;54092;53.088;8.850;2023-02-14T12:30:28;19.70;;;11.40;;
67162;SDS011;54092;53.088;8.850;2023-02-14T12:32:38;25.27;;;11.60;;
67162;SDS011;54092;53.088;8.850;2023-02-14T12:38:20;21.27;;;11.23;;
67162;SDS011;54092;53.088;8.850;2023-02-14T12:40:56;19.52;;;11.48;;
67162;SDS011;54092;53.088;8.850;2023-02-14T12:43:33;17.90;;;10.70;;
67162;SDS011;54092;53.088;8.850;2023-02-14T12:48:55;16.17;;;10.10;;
67162;SDS011;54092;53.088;8.850;2023-02-14T12:57:27;16.20;;;9.00;;
67162;SDS011;54092;53.088;8.850;2023-02-14T13:05:44;15.40;;;9.57;;
67162;SDS011;54092;53.088;8.850;2023-02-14T13:11:13;16.08;;;9.00;;
67162;SDS011;54092;53.088;8.850;2023-02-14T13:14:16;17.52;;;10.25;;
67162;SDS011;54092;53.088;8.850;2023-02-14T13:19:59;18.25;;;10.25;;
67162;SDS011;54092;53.088;8.850;2023-02-14T13:22:30;17.73;;;9.70;;
67162;SDS011;54092;53.088;8.850;2023-02-14T13:25:33;18.30;;;9.63;;
67162;SDS011;54092;53.088;8.850;2023-02-14T13:28:05;15.60;;;9.38;;
67162;SDS011;54092;53.088;8.850;2023-02-14T13:30:35;16.52;;;9.65;;
67162;SDS011;54092;53.088;8.850;2023-02-14T13:33:13;18.40;;;9.65;;
67162;SDS011;54092;53.088;8.850;2023-02-14T13:35:56;16.30;;;9.50;;
67162;SDS011;54092;53.088;8.850;2023-02-14T13:38:25;18.50;;;9.35;;
67162;SDS011;54092;53.088;8.850;2023-02-14T13:40:52;15.95;;;9.10;;
67162;SDS011;54092;53.088;8.850;2023-02-14T13:46:09;15.32;;;8.20;;
67162;SDS011;54092;53.088;8.850;2023-02-14T13:48:34;17.75;;;9.57;;
67162;SDS011;54092;53.088;8.850;2023-02-14T13:51:04;15.60;;;8.00;;
67162;SDS011;54092;53.088;8.850;2023-02-14T13:53:43;19.30;;;9.10;;
67162;SDS011;54092;53.088;8.850;2023-02-14T14:17:29;13.32;;;7.22;;
67162;SDS011;54092;53.088;8.850;2023-02-14T14:19:56;15.80;;;8.80;;
67162;SDS011;54092;53.088;8.850;2023-02-14T14:22:22;15.50;;;6.88;;
67162;SDS011;54092;53.088;8.850;2023-02-14T14:24:53;12.45;;;7.18;;
67162;SDS011;54092;53.088;8.850;2023-02-14T14:29:58;13.82;;;7.68;;
67162;SDS011;54092;53.088;8.850;2023-02-14T14:32:28;14.75;;;8.13;;
67162;SDS011;54092;53.088;8.850;2023-02-14T14:35:16;15.30;;;7.47;;
67162;SDS011;54092;53.088;8.850;2023-02-14T14:37:45;16.67;;;7.45;;
67162;SDS011;54092;53.088;8.850;2023-02-14T14:40:23;13.10;;;7.53;;
67162;SDS011;54092;53.088;8.850;2023-02-14T14:45:26;14.32;;;7.28;;
67162;SDS011;54092;53.088;8.850;2023-02-14T14:47:54;13.35;;;6.78;;
67162;SDS011;54092;53.088;8.850;2023-02-14T14:50:22;11.75;;;6.35;;
67162;SDS011;54092;53.088;8.850;2023-02-14T14:52:51;12.83;;;6.73;;
67162;SDS011;54092;53.088;8.850;2023-02-14T14:55:20;11.95;;;6.50;;
67162;SDS011;54092;53.088;8.850;2023-02-14T14:57:53;11.50;;;6.30;;
67162;SDS011;54092;53.088;8.850;2023-02-14T15:05:34;13.73;;;6.68;;
67162;SDS011;54092;53.088;8.850;2023-02-14T15:10:50;11.80;;;6.35;;
67162;SDS011;54092;53.088;8.850;2023-02-14T15:16:06;16.08;;;8.57;;
67162;SDS011;54092;53.088;8.850;2023-02-14T15:18:32;15.40;;;8.35;;
67162;SDS011;54092;53.088;8.850;2023-02-14T15:20:57;15.60;;;8.90;;
67162;SDS011;54092;53.088;8.850;2023-02-14T15:23:23;16.75;;;9.00;;
67162;SDS011;54092;53.088;8.850;2023-02-14T15:25:49;15.77;;;8.80;;
67162;SDS011;54092;53.088;8.850;2023-02-14T15:28:26;22.92;;;9.70;;
67162;SDS011;54092;53.088;8.850;2023-02-14T15:31:03;22.42;;;9.80;;
67162;SDS011;54092;53.088;8.850;2023-02-14T15:33:31;17.80;;;9.40;;
67162;SDS011;54092;53.088;8.850;2023-02-14T15:35:58;15.52;;;9.35;;
67162;SDS011;54092;53.088;8.850;2023-02-14T15:38:30;23.58;;;10.63;;
67162;SDS011;54092;53.088;8.850;2023-02-14T15:40:59;20.48;;;10.25;;
67162;SDS011;54092;53.088;8.850;2023-02-14T15:43:30;17.35;;;9.55;;
67162;SDS011;54092;53.088;8.850;2023-02-14T15:49:04;18.63;;;10.23;;
67162;SDS011;54092;53.088;8.850;2023-02-14T15:51:33;21.10;;;12.02;;
67162;SDS011;54092;53.088;8.850;2023-02-14T15:54:04;39.58;;;22.05;;
67162;SDS011;54092;53.088;8.850;2023-02-14T15:56:33;23.25;;;12.45;;
67162;SDS011;54092;53.088;8.850;2023-02-14T15:59:17;23.05;;;11.48;;
67162;SDS011;54092;53.088;8.850;2023-02-14T16:01:50;21.13;;;10.65;;
67162;SDS011;54092;53.088;8.850;2023-02-14T16:04:24;23.55;;;11.07;;
67162;SDS011;54092;53.088;8.850;2023-02-14T16:07:09;22.00;;;11.63;;
67162;SDS011;54092;53.088;8.850;2023-02-14T16:09:45;21.75;;;11.30;;
67162;SDS011;54092;53.088;8.850;2023-02-14T16:14:59;22.00;;;10.57;;
67162;SDS011;54092;53.088;8.850;2023-02-14T16:17:31;21.30;;;10.30;;
67162;SDS011;54092;53.088;8.850;2023-02-14T16:20:17;21.17;;;12.32;;
67162;SDS011;54092;53.088;8.850;2023-02-14T16:22:47;16.38;;;9.23;;
67162;SDS011;54092;53.088;8.850;2023-02-14T16:25:14;20.33;;;10.20;;
67162;SDS011;54092;53.088;8.850;2023-02-14T16:27:40;18.42;;;9.80;;
67162;SDS011;54092;53.088;8.850;2023-02-14T16:30:06;19.02;;;10.07;;
67162;SDS011;54092;53.088;8.850;2023-02-14T16:32:38;22.67;;;10.18;;
67162;SDS011;54092;53.088;8.850;2023-02-14T16:35:03;25.65;;;11.18;;
67162;SDS011;54092;53.088;8.850;2023-02-14T16:37:30;18.08;;;8.65;;
67162;SDS011;54092;53.088;8.850;2023-02-14T16:39:57;26.20;;;9.20;;
67162;SDS011;54092;53.088;8.850;2023-02-14T16:42:25;18.90;;;10.32;;
67162;SDS011;54092;53.088;8.850;2023-02-14T16:44:51;19.83;;;9.57;;
67162;SDS011;54092;53.088;8.850;2023-02-14T16:47:17;21.10;;;9.68;;
67162;SDS011;54092;53.088;8.850;2023-02-14T16:49:44;20.75;;;9.70;;
67162;SDS011;54092;53.088;8.850;2023-02-14T16:52:17;19.52;;;9.75;;
67162;SDS011;54092;53.088;8.850;2023-02-14T16:54:46;22.02;;;10.80;;
67162;SDS011;54092;53.088;8.850;2023-02-14T16:57:16;21.58;;;10.27;;